Time;durP1;ratioP1;P1;durP2;ratioP2;P2;SDS_P1;SDS_P2;PMS_P1;PMS_P2;Temp;Humidity;BMP_temperature;BMP_pressure;BME280_temperature;BME280_humidity;BME280_pressure;Samples;Min_cycle;Max_cycle;Signal;HPM_P1;HPM_P2
2022/11/11 00:00:24;;;;;;;4.32;1.33;;;;;;;17.84;44.90;102672.13;4949689;28;20400;-61
2022/11/11 00:02:49;;;;;;;2.65;1.25;;;;;;;17.82;45.24;102671.41;4985723;28;20448;-61
2022/11/11 00:05:15;;;;;;;2.50;1.10;;;;;;;17.82;44.66;102674.09;4982665;28;20027;-61
2022/11/11 00:07:42;;;;;;;1.40;1.27;;;;;;;17.80;44.58;102684.22;4958053;28;20038;-61
2022/11/11 00:10:08;;;;;;;6.22;1.40;;;;;;;17.74;45.05;102684.75;4983818;28;20126;-61
2022/11/11 00:12:33;;;;;;;2.67;1.10;;;;;;;17.74;44.13;102692.88;4982851;28;20026;-61
2022/11/11 00:14:58;;;;;;;1.63;1.27;;;;;;;17.72;44.46;102686.75;4958343;28;20058;-61
2022/11/11 00:25:37;;;;;;;2.15;1.25;;;;;;;17.48;44.90;102683.34;4984099;28;20053;-61
2022/11/11 00:28:02;;;;;;;2.95;1.13;;;;;;;17.45;45.06;102675.44;4991466;28;20046;-61
2022/11/11 00:30:28;;;;;;;2.13;1.30;;;;;;;17.45;44.82;102670.03;4967577;28;20149;-61
2022/11/11 00:32:54;;;;;;;2.65;1.20;;;;;;;17.45;44.24;102675.44;4993170;28;20058;-61
2022/11/11 00:38:08;;;;;;;2.50;1.20;;;;;;;17.37;44.57;102681.53;4986320;28;20066;-61
2022/11/11 00:40:33;;;;;;;4.80;1.45;;;;;;;17.39;45.40;102692.25;4985374;28;20523;-61
2022/11/11 00:42:59;;;;;;;3.15;1.40;;;;;;;17.39;45.12;102689.53;4950030;28;20037;-61
2022/11/11 00:45:24;;;;;;;2.25;1.40;;;;;;;17.39;45.05;102693.09;4975285;28;20030;-61
2022/11/11 00:53:22;;;;;;;5.47;1.30;;;;;;;17.40;45.40;102693.94;4986762;28;20515;-61
2022/11/11 00:55:47;;;;;;;1.98;0.60;;;;;;;17.39;45.00;102686.84;4987393;28;20121;-61
2022/11/11 00:58:13;;;;;;;3.20;1.05;;;;;;;17.39;44.91;102678.69;4988091;28;20099;-61
2022/11/11 01:00:38;;;;;;;4.50;1.40;;;;;;;17.37;44.43;102677.94;4989037;28;20033;-61
2022/11/11 01:03:04;;;;;;;3.05;1.13;;;;;;;17.35;44.55;102679.94;4979241;28;20035;-61
2022/11/11 01:05:29;;;;;;;2.38;0.80;;;;;;;17.35;44.55;102679.94;4988234;28;20399;-61
2022/11/11 01:07:55;;;;;;;5.40;1.33;;;;;;;17.34;44.73;102694.47;4994355;28;20042;-61
2022/11/11 01:10:40;;;;;;;4.43;1.38;;;;;;;17.34;44.70;102686.31;4961299;28;20023;-61
2022/11/11 01:13:18;;;;;;;3.08;1.05;;;;;;;17.34;44.53;102694.47;4977042;28;20131;-61
2022/11/11 01:15:46;;;;;;;2.80;1.70;;;;;;;17.34;45.33;102702.59;4970102;28;20033;-61
2022/11/11 01:18:14;;;;;;;2.45;1.10;;;;;;;17.33;45.33;102698.16;4989517;28;20026;-61
2022/11/11 01:20:40;;;;;;;2.72;1.27;;;;;;;17.31;44.33;102695.56;4985907;28;20046;-61
2022/11/11 01:23:07;;;;;;;3.63;0.90;;;;;;;17.30;44.41;102690.28;4989863;28;20099;-61
2022/11/11 01:25:36;;;;;;;0.93;0.82;;;;;;;17.28;44.64;102697.69;4986430;28;20427;-61
2022/11/11 01:28:03;;;;;;;6.78;1.40;;;;;;;17.28;45.74;102697.69;4966122;28;20065;-61
2022/11/11 01:30:30;;;;;;;5.07;1.20;;;;;;;17.25;46.05;102706.91;4985891;28;20034;-61
2022/11/11 01:32:55;;;;;;;4.22;1.40;;;;;;;17.25;45.45;102700.66;4984529;28;20026;-61
2022/11/11 01:35:21;;;;;;;2.65;1.33;;;;;;;17.21;45.06;102699.19;4984085;28;20046;-61
2022/11/11 01:37:46;;;;;;;5.35;1.80;;;;;;;17.22;45.54;102706.31;4961206;28;20031;-61
2022/11/11 01:40:12;;;;;;;2.60;1.30;;;;;;;17.19;44.78;102695.75;4994510;28;20035;-61
2022/11/11 01:43:14;;;;;;;2.50;1.20;;;;;;;17.17;44.45;102705.84;4968385;28;20030;-61
2022/11/11 01:45:59;;;;;;;9.57;1.73;;;;;;;17.16;44.71;102712.25;4994424;28;20475;-60
2022/11/11 01:51:33;;;;;;;3.63;1.10;;;;;;;17.09;45.62;102711.00;4983668;28;20034;-61
2022/11/11 01:54:02;;;;;;;10.05;1.80;;;;;;;17.07;45.84;102712.97;4980685;28;20050;-61
2022/11/11 01:56:28;;;;;;;2.75;1.10;;;;;;;17.02;44.97;102713.38;4963761;28;20400;-61
2022/11/11 01:58:55;;;;;;;3.45;1.20;;;;;;;17.01;45.59;102719.75;4985335;28;20031;-61
2022/11/11 02:01:20;;;;;;;4.47;1.40;;;;;;;17.01;45.08;102718.91;4978148;28;20061;-61
2022/11/11 02:06:32;;;;;;;3.78;1.13;;;;;;;16.96;44.81;102721.97;4983653;28;20089;-62
2022/11/11 02:08:58;;;;;;;2.75;1.17;;;;;;;16.94;44.38;102728.50;4985004;28;20026;-61
2022/11/11 02:16:53;;;;;;;2.95;1.50;;;;;;;16.82;45.35;102719.53;4986297;28;20041;-61
2022/11/11 02:19:24;;;;;;;2.28;1.55;;;;;;;16.79;44.99;102715.22;4987789;28;20022;-60
2022/11/11 02:21:57;;;;;;;6.72;1.30;;;;;;;16.77;45.19;102711.78;4983763;28;20030;-60
2022/11/11 02:24:23;;;;;;;1.50;1.27;;;;;;;16.73;45.70;102714.84;4967554;28;20500;-61
2022/11/11 02:26:49;;;;;;;5.22;1.20;;;;;;;16.67;45.13;102708.09;4929901;28;1108881;-60
2022/11/11 02:29:17;;;;;;;4.00;1.30;;;;;;;16.63;45.92;102708.47;4961191;28;20517;-61
2022/11/11 02:31:43;;;;;;;3.72;1.50;;;;;;;16.56;45.91;102697.25;4961392;28;20031;-61
2022/11/11 02:34:08;;;;;;;2.63;1.00;;;;;;;16.53;45.30;102702.91;4977730;28;20098;-61
2022/11/11 02:36:34;;;;;;;2.38;1.40;;;;;;;16.50;45.45;102703.09;4977736;28;20102;-61
2022/11/11 02:39:00;;;;;;;5.38;1.50;;;;;;;16.42;45.59;102694.75;4994218;28;20026;-61
2022/11/11 02:44:09;;;;;;;1.95;1.48;;;;;;;16.38;45.36;102697.81;4991842;28;20065;-61
2022/11/11 02:46:34;;;;;;;4.40;2.22;;;;;;;16.35;45.46;102698.94;4978567;28;20512;-61
2022/11/11 02:49:00;;;;;;;5.20;1.38;;;;;;;16.34;44.92;102697.19;4993519;28;20105;-61
2022/11/11 02:51:25;;;;;;;7.97;1.85;;;;;;;16.29;45.86;102688.59;4979167;28;20050;-60
2022/11/11 02:53:50;;;;;;;3.13;1.38;;;;;;;16.27;45.87;102694.09;4977264;28;20401;-61
2022/11/11 02:57:05;;;;;;;2.38;1.63;;;;;;;16.22;45.60;102693.59;4993334;28;20039;-61
2022/11/11 02:59:01;;;;;;;4.75;1.98;;;;;;;16.23;44.86;102699.88;4991073;28;20042;-61
2022/11/11 03:01:26;;;;;;;3.50;1.95;;;;;;;16.18;45.72;102688.56;4993731;28;20092;-61
2022/11/11 03:03:51;;;;;;;2.25;1.50;;;;;;;16.18;45.53;102693.97;4977264;28;20070;-61
2022/11/11 03:06:17;;;;;;;5.22;1.83;;;;;;;16.16;45.73;102687.84;4993482;28;20038;-61
2022/11/11 03:08:42;;;;;;;5.60;1.50;;;;;;;16.16;46.04;102693.25;4978385;28;20174;-61
2022/11/11 03:11:08;;;;;;;2.55;1.48;;;;;;;16.14;45.66;102696.06;4993476;28;20389;-61
2022/11/11 03:13:33;;;;;;;5.90;1.45;;;;;;;16.10;45.99;102700.00;4979475;28;20406;-61
2022/11/11 03:15:58;;;;;;;8.40;1.33;;;;;;;16.10;44.99;102691.00;4979260;28;20043;-60
2022/11/11 03:18:23;;;;;;;5.30;1.85;;;;;;;16.12;45.74;102698.03;4998754;28;20517;-59
2022/11/11 03:21:04;;;;;;;2.08;1.40;;;;;;;16.11;45.99;102695.41;4998473;28;20395;-59
2022/11/11 03:23:30;;;;;;;5.57;1.95;;;;;;;16.10;45.44;102694.59;4997597;28;20407;-60
2022/11/11 03:25:55;;;;;;;1.95;1.40;;;;;;;16.10;45.52;102682.91;4996653;28;20050;-59
2022/11/11 03:28:23;;;;;;;5.53;2.20;;;;;;;16.12;46.60;102686.34;4980956;28;20408;-59
2022/11/11 03:30:49;;;;;;;4.25;1.77;;;;;;;16.12;45.66;102687.22;4996671;28;20027;-59
2022/11/11 03:33:16;;;;;;;5.13;1.92;;;;;;;16.14;45.25;102687.06;4997464;28;20038;-60
2022/11/11 03:35:42;;;;;;;2.70;1.60;;;;;;;16.12;45.33;102687.22;4980502;28;20031;-60
2022/11/11 03:38:22;;;;;;;1.80;1.30;;;;;;;16.09;45.48;102675.75;4979666;28;20510;-59
2022/11/11 03:40:49;;;;;;;3.05;1.60;;;;;;;16.08;46.25;102680.31;4996750;28;20522;-60
2022/11/11 03:43:16;;;;;;;5.45;1.50;;;;;;;16.08;45.42;102674.91;4996106;28;20045;-60
2022/11/11 03:45:43;;;;;;;3.38;1.60;;;;;;;16.05;46.61;102668.88;4996349;28;20054;-59
2022/11/11 03:48:09;;;;;;;7.75;1.45;;;;;;;16.05;46.00;102663.47;4997169;28;20077;-60
2022/11/11 03:50:34;;;;;;;3.42;1.35;;;;;;;16.02;45.62;102663.72;4996458;28;20026;-59
2022/11/11 03:52:59;;;;;;;1.98;1.60;;;;;;;16.04;46.54;102672.56;4996217;28;20411;-59
2022/11/11 03:55:25;;;;;;;3.42;1.38;;;;;;;16.01;45.66;102668.25;4980014;28;20117;-59
2022/11/11 03:57:50;;;;;;;3.47;1.40;;;;;;;15.99;45.37;102659.41;4980206;28;20034;-60
2022/11/11 04:00:19;;;;;;;2.42;1.13;;;;;;;16.04;45.26;102675.25;4996780;28;20082;-59
2022/11/11 04:10:59;;;;;;;2.70;2.35;;;;;;;16.05;45.24;102668.88;4996355;28;20093;-59
2022/11/11 04:16:10;;;;;;;6.35;1.67;;;;;;;16.12;45.64;102667.41;4996612;28;20089;-59
2022/11/11 04:26:49;;;;;;;4.65;1.15;;;;;;;16.19;46.04;102672.22;4996049;28;20047;-59
2022/11/11 04:29:30;;;;;;;3.00;1.08;;;;;;;16.18;45.71;102675.06;4996338;28;20046;-60
2022/11/11 04:34:53;;;;;;;4.97;1.48;;;;;;;16.18;46.22;102673.22;4997081;28;20033;-59
2022/11/11 04:37:20;;;;;;;2.03;1.10;;;;;;;16.22;45.70;102687.34;4980052;28;20031;-59
2022/11/11 04:42:31;;;;;;;2.70;1.33;;;;;;;16.12;45.45;102665.56;4996596;28;20500;-59
2022/11/11 04:47:57;;;;;;;3.67;1.23;;;;;;;16.14;45.18;102689.78;4996134;28;20041;-60
2022/11/11 04:50:25;;;;;;;9.60;1.42;;;;;;;16.12;46.62;102681.81;4979509;28;20088;-59
2022/11/11 04:52:50;;;;;;;5.60;1.52;;;;;;;16.11;46.25;102679.19;4995804;28;20041;-60
2022/11/11 04:58:00;;;;;;;3.05;1.23;;;;;;;16.08;46.56;102674.91;4996632;28;20112;-59
2022/11/11 05:00:26;;;;;;;4.30;1.08;;;;;;;16.07;46.29;102681.31;4996367;28;20474;-59
2022/11/11 05:11:07;;;;;;;2.85;1.15;;;;;;;15.99;46.61;102675.63;4996154;28;20090;-60
2022/11/11 05:22:17;;;;;;;4.53;1.30;;;;;;;15.98;47.09;102682.00;4996722;28;20149;-59
2022/11/11 05:27:28;;;;;;;9.50;2.67;;;;;;;15.98;45.73;102679.31;4996158;28;20065;-60
2022/11/11 05:29:53;;;;;;;4.55;1.40;;;;;;;16.00;47.01;102684.56;4995517;28;20094;-59
2022/11/11 05:32:20;;;;;;;8.45;1.35;;;;;;;16.00;46.88;102687.28;4979188;28;20030;-60
2022/11/11 05:34:45;;;;;;;4.43;1.15;;;;;;;16.03;45.99;102684.34;4995403;28;20089;-59
2022/11/11 05:37:11;;;;;;;10.55;1.80;;;;;;;16.06;46.55;102681.41;4996457;28;20117;-59
2022/11/11 05:39:37;;;;;;;4.97;1.10;;;;;;;16.07;46.29;102685.84;4982385;28;20538;-60
2022/11/11 05:42:02;;;;;;;10.52;1.55;;;;;;;16.09;45.93;102683.88;4999440;28;20530;-60
2022/11/11 05:44:28;;;;;;;2.85;1.17;;;;;;;16.12;46.85;102694.44;4999270;28;20022;-59
2022/11/11 05:46:53;;;;;;;5.20;1.10;;;;;;;16.16;46.49;102695.94;4998708;28;20026;-59
2022/11/11 05:49:19;;;;;;;6.05;1.40;;;;;;;16.17;46.60;102689.53;5000288;28;20411;-60
2022/11/11 05:51:45;;;;;;;7.85;1.85;;;;;;;16.17;46.50;102697.66;4982755;28;20411;-59
2022/11/11 05:54:11;;;;;;;4.00;1.20;;;;;;;16.20;46.69;102705.53;4983275;28;20057;-59
2022/11/11 05:56:36;;;;;;;2.20;1.05;;;;;;;16.18;46.55;102700.25;4982549;28;20560;-60
2022/11/11 05:59:02;;;;;;;3.17;1.33;;;;;;;16.23;46.52;102702.59;4983003;28;20072;-60
2022/11/11 06:01:28;;;;;;;4.13;2.05;;;;;;;16.24;46.26;102707.03;4998499;28;20038;-60
2022/11/11 06:03:53;;;;;;;2.80;1.23;;;;;;;16.23;46.54;102702.59;4999832;28;20027;-59
2022/11/11 06:06:18;;;;;;;7.38;0.82;;;;;;;16.26;46.90;102699.66;4999426;28;20019;-60
2022/11/11 06:08:44;;;;;;;2.92;1.23;;;;;;;16.27;46.77;102696.81;4998498;28;20138;-60
2022/11/11 06:11:09;;;;;;;5.90;0.80;;;;;;;16.29;46.54;102702.13;4999432;28;20056;-59
2022/11/11 06:13:34;;;;;;;6.40;1.10;;;;;;;16.30;46.29;102698.44;4981711;28;20096;-60
2022/11/11 06:16:00;;;;;;;8.82;1.00;;;;;;;16.30;45.95;102701.16;4998426;28;20035;-60
2022/11/11 06:18:25;;;;;;;9.35;1.50;;;;;;;16.30;46.58;102695.72;4999032;28;20041;-59
2022/11/11 06:20:53;;;;;;;2.92;1.10;;;;;;;16.27;45.74;102694.09;4994614;28;20110;-60
2022/11/11 06:23:18;;;;;;;5.82;1.20;;;;;;;16.27;45.94;102710.31;4978968;28;20098;-60
2022/11/11 06:28:28;;;;;;;8.18;1.25;;;;;;;16.23;46.36;102703.44;4978888;28;20041;-60
2022/11/11 06:30:53;;;;;;;5.22;1.08;;;;;;;16.27;46.87;102713.03;4962317;28;20026;-60
2022/11/11 06:33:20;;;;;;;6.50;1.00;;;;;;;16.28;46.77;102714.78;4978767;28;20030;-60
2022/11/11 06:35:46;;;;;;;2.88;1.08;;;;;;;16.28;46.26;102717.47;4978999;28;20119;-60
2022/11/11 06:38:11;;;;;;;1.13;0.93;;;;;;;16.28;46.26;102714.78;4978534;28;20058;-60
2022/11/11 06:40:36;;;;;;;4.90;1.08;;;;;;;16.31;46.11;102724.47;4978185;28;20122;-60
2022/11/11 06:43:02;;;;;;;11.40;1.83;;;;;;;16.33;45.84;102727.09;4962603;28;20615;-60
2022/11/11 06:45:29;;;;;;;4.07;1.00;;;;;;;16.33;45.71;102732.50;4963023;28;20499;-60
2022/11/11 06:47:54;;;;;;;4.82;0.95;;;;;;;16.36;45.96;102729.56;4979776;28;20042;-60
2022/11/11 06:50:20;;;;;;;2.22;0.70;;;;;;;16.37;45.61;102733.97;4978499;28;20049;-59
2022/11/11 06:52:46;;;;;;;3.72;0.82;;;;;;;16.37;46.83;102734.81;4981007;28;20091;-59
2022/11/11 06:55:11;;;;;;;4.85;1.98;;;;;;;16.37;46.57;102734.81;4983613;28;20090;-60
2022/11/11 06:57:37;;;;;;;4.55;0.98;;;;;;;16.40;46.35;102737.28;4980791;28;20031;-60
2022/11/11 07:00:04;;;;;;;5.20;1.25;;;;;;;16.38;45.58;102731.16;4978570;28;20027;-60
2022/11/11 07:02:29;;;;;;;3.78;1.42;;;;;;;16.40;45.67;102734.59;4977494;28;20038;-60
2022/11/11 07:04:54;;;;;;;3.53;1.25;;;;;;;16.42;46.28;102740.72;4978402;28;20027;-59
2022/11/11 07:07:20;;;;;;;5.22;1.02;;;;;;;16.47;46.60;102751.22;4979388;28;20069;-60
2022/11/11 07:09:45;;;;;;;1.80;1.25;;;;;;;16.48;45.79;102744.81;4978753;28;20018;-60
2022/11/11 07:12:10;;;;;;;1.75;1.63;;;;;;;16.50;45.63;102746.41;4978021;28;20023;-60
2022/11/11 07:14:36;;;;;;;7.32;1.30;;;;;;;16.51;45.25;102741.84;4977986;28;20062;-59
2022/11/11 07:17:01;;;;;;;4.35;1.23;;;;;;;16.54;46.19;102747.94;4977993;28;20035;-59
2022/11/11 07:19:26;;;;;;;1.67;0.93;;;;;;;16.55;45.90;102756.91;4961240;28;20031;-59
2022/11/11 07:21:52;;;;;;;2.22;0.70;;;;;;;16.57;46.66;102754.94;4979393;28;20484;-61
2022/11/11 07:24:17;;;;;;;4.18;0.75;;;;;;;16.61;46.15;102761.84;4977963;28;20034;-59
2022/11/11 07:26:42;;;;;;;2.65;0.70;;;;;;;16.66;45.83;102755.09;4960831;28;20054;-61
2022/11/11 07:29:08;;;;;;;2.90;0.80;;;;;;;16.70;46.42;102759.25;4977822;28;20031;-59
2022/11/11 07:31:34;;;;;;;3.28;0.98;;;;;;;16.74;45.71;102754.47;4961590;28;20110;-60
2022/11/11 07:33:59;;;;;;;2.85;1.05;;;;;;;16.77;45.91;102765.94;4977727;28;20039;-58
2022/11/11 07:36:24;;;;;;;2.47;1.27;;;;;;;16.83;44.75;102775.41;4979093;28;20027;-59
2022/11/11 07:38:50;;;;;;;1.80;0.88;;;;;;;16.88;45.45;102774.06;4978421;28;20034;-60
2022/11/11 07:41:15;;;;;;;4.65;0.80;;;;;;;16.94;45.05;102771.84;4978737;28;20038;-59
2022/11/11 07:43:40;;;;;;;3.38;1.00;;;;;;;17.00;46.17;102771.34;4978811;28;20035;-59
2022/11/11 07:46:06;;;;;;;5.10;0.90;;;;;;;17.07;45.72;102775.25;4961148;28;20171;-59
2022/11/11 07:48:31;;;;;;;3.35;0.90;;;;;;;17.15;45.19;102780.91;4961491;28;20023;-60
2022/11/11 07:50:57;;;;;;;0.70;0.63;;;;;;;17.24;46.02;102785.59;4977685;28;20053;-58
2022/11/11 07:53:22;;;;;;;2.85;0.77;;;;;;;17.30;45.08;102787.81;4961092;28;20042;-59
2022/11/11 07:55:47;;;;;;;3.35;0.80;;;;;;;17.36;44.87;102787.31;4960835;28;20047;-59
2022/11/11 07:58:13;;;;;;;3.25;0.88;;;;;;;17.42;45.54;102789.50;4960727;28;20110;-59
2022/11/11 08:00:38;;;;;;;2.47;1.05;;;;;;;17.48;44.41;102791.72;4977316;28;20045;-58
2022/11/11 08:03:04;;;;;;;5.53;1.10;;;;;;;17.55;44.64;102794.84;4977137;28;20034;-59
2022/11/11 08:05:29;;;;;;;3.00;0.88;;;;;;;17.58;44.68;102795.44;4976750;28;20031;-59
2022/11/11 08:07:55;;;;;;;4.65;0.52;;;;;;;17.63;44.41;102809.47;4977675;28;20039;-59
2022/11/11 08:10:20;;;;;;;6.00;1.02;;;;;;;17.73;45.34;102815.84;4961115;28;20558;-59
2022/11/11 08:15:30;;;;;;;2.75;0.82;;;;;;;17.85;44.34;102809.41;4977009;28;20511;-59
2022/11/11 08:17:58;;;;;;;2.60;0.63;;;;;;;18.00;44.45;102808.16;4977187;28;20031;-59
2022/11/11 08:20:23;;;;;;;5.20;1.00;;;;;;;18.14;44.60;102808.81;4977342;28;20027;-59
2022/11/11 08:22:51;;;;;;;1.85;0.60;;;;;;;18.24;43.90;102798.91;4976760;28;20035;-60
2022/11/11 08:25:17;;;;;;;2.30;1.15;;;;;;;18.38;43.87;102802.16;4975870;28;20122;-62
2022/11/11 08:27:42;;;;;;;1.75;1.00;;;;;;;18.53;43.79;102802.75;4960275;28;20148;-60
2022/11/11 08:30:08;;;;;;;2.50;0.75;;;;;;;18.69;44.33;102800.41;4977017;28;20042;-60
2022/11/11 08:32:34;;;;;;;2.90;0.90;;;;;;;18.82;44.06;102803.75;4976804;28;20030;-59
2022/11/11 08:34:59;;;;;;;1.67;0.80;;;;;;;18.90;43.85;102809.38;4976892;28;20119;-59
2022/11/11 08:37:25;;;;;;;2.00;0.70;;;;;;;18.96;43.91;102800.69;4960310;28;20055;-59
2022/11/11 08:39:51;;;;;;;3.90;1.00;;;;;;;19.04;43.63;102800.88;4978042;28;20042;-59
2022/11/11 08:42:17;;;;;;;3.20;0.93;;;;;;;19.12;44.16;102802.94;4977567;28;20098;-59
2022/11/11 08:44:42;;;;;;;4.00;0.80;;;;;;;19.22;43.74;102800.25;4976288;28;20034;-59
2022/11/11 08:47:08;;;;;;;2.88;0.65;;;;;;;19.38;43.56;102797.84;4976723;28;20031;-59
2022/11/11 08:49:33;;;;;;;2.20;0.40;;;;;;;19.46;43.21;102806.22;4975972;28;20065;-60
2022/11/11 08:51:59;;;;;;;2.13;0.63;;;;;;;19.53;43.42;102796.50;4959658;28;20098;-59
2022/11/11 08:54:24;;;;;;;3.20;1.02;;;;;;;19.64;43.15;102807.28;4977117;28;20042;-60
2022/11/11 08:56:49;;;;;;;1.60;0.70;;;;;;;19.73;43.17;102798.28;4959830;28;20054;-59
2022/11/11 08:59:15;;;;;;;4.45;1.15;;;;;;;19.80;42.87;102804.88;4976026;28;20548;-59
2022/11/11 09:01:40;;;;;;;3.83;0.70;;;;;;;19.83;42.32;102798.28;4977315;28;20034;-59
2022/11/11 09:04:05;;;;;;;2.67;0.90;;;;;;;19.89;42.37;102797.72;4975834;28;20500;-60
2022/11/11 09:06:31;;;;;;;1.30;0.80;;;;;;;19.92;42.38;102808.31;4977172;28;20149;-59
2022/11/11 09:08:56;;;;;;;2.95;0.65;;;;;;;20.05;42.32;102804.31;4960198;28;20022;-59
2022/11/11 09:11:21;;;;;;;2.05;0.68;;;;;;;20.15;42.21;102799.75;4976105;28;20038;-59
2022/11/11 09:13:47;;;;;;;1.35;0.52;;;;;;;20.17;42.57;102803.19;4961761;28;20043;-60
2022/11/11 09:16:13;;;;;;;2.47;0.63;;;;;;;20.23;41.84;102802.63;4979610;28;20039;-59
2022/11/11 09:18:38;;;;;;;2.72;0.75;;;;;;;20.41;41.63;102808.19;4979739;28;20035;-59
2022/11/11 09:21:04;;;;;;;8.60;0.80;;;;;;;20.89;41.02;102798.06;4963934;28;20029;-60
2022/11/11 09:23:30;;;;;;;1.73;0.55;;;;;;;21.38;40.71;102802.34;4979547;28;20046;-60
2022/11/11 09:25:57;;;;;;;2.90;0.65;;;;;;;21.74;40.98;102802.44;4979329;28;20066;-59
2022/11/11 09:28:23;;;;;;;4.28;0.65;;;;;;;22.10;40.60;102793.28;4979202;28;20046;-59
2022/11/11 09:30:48;;;;;;;1.45;0.65;;;;;;;22.47;39.37;102795.84;4979670;28;20055;-59
2022/11/11 09:33:15;;;;;;;1.52;0.52;;;;;;;22.95;39.55;102798.06;4980441;28;20023;-60
2022/11/11 09:35:41;;;;;;;1.40;0.77;;;;;;;23.34;38.74;102787.50;4963758;28;20035;-60
2022/11/11 09:38:06;;;;;;;8.77;1.65;;;;;;;23.62;39.04;102798.06;4962607;28;20420;-60
2022/11/11 09:40:45;;;;;;;1.75;0.65;;;;;;;23.93;38.95;102800.16;4979414;28;20066;-60
2022/11/11 09:43:23;;;;;;;4.95;0.98;;;;;;;24.10;38.28;102794.59;4963212;28;20050;-60
2022/11/11 09:45:57;;;;;;;3.20;0.77;;;;;;;24.12;38.56;102805.41;4962672;28;20046;-60
2022/11/11 09:48:42;;;;;;;2.85;0.88;;;;;;;24.21;38.11;102812.56;4980622;28;20117;-60
2022/11/11 09:51:16;;;;;;;1.73;0.75;;;;;;;24.28;37.25;102802.66;4980529;28;20496;-60
2022/11/11 09:53:57;;;;;;;7.82;1.10;;;;;;;24.46;37.79;102805.22;4963448;28;20042;-60
2022/11/11 09:56:24;;;;;;;2.67;1.00;;;;;;;24.62;37.51;102806.06;4979253;28;20166;-60
2022/11/11 09:58:51;;;;;;;2.42;0.63;;;;;;;24.88;37.23;102804.00;4978700;28;20407;-60
2022/11/11 10:01:28;;;;;;;5.85;1.00;;;;;;;25.09;36.70;102805.31;4962882;28;20063;-60
2022/11/11 10:04:21;;;;;;;8.13;0.80;;;;;;;25.26;36.57;102812.47;4962737;28;20031;-60
2022/11/11 10:06:48;;;;;;;4.78;0.77;;;;;;;25.55;36.34;102814.59;4961712;28;20181;-60
2022/11/11 10:09:24;;;;;;;7.85;0.80;;;;;;;25.78;36.00;102816.38;4979071;28;20033;-62
2022/11/11 10:12:09;;;;;;;1.83;0.90;;;;;;;25.92;35.44;102807.34;4978825;28;20035;-60
2022/11/11 10:14:38;;;;;;;1.63;0.47;;;;;;;26.03;35.68;102819.81;4978957;28;20039;-59
2022/11/11 10:17:21;;;;;;;1.75;0.88;;;;;;;26.07;35.97;102817.56;4980098;28;20034;-60
2022/11/11 10:19:56;;;;;;;2.50;0.90;;;;;;;26.17;35.20;102815.44;4978957;28;20121;-60
2022/11/11 10:22:26;;;;;;;2.33;0.75;;;;;;;26.24;35.23;102817.28;4980099;28;20110;-60
2022/11/11 10:25:12;;;;;;;2.65;0.80;;;;;;;26.29;34.79;102825.84;4962476;28;20039;-60
2022/11/11 10:27:43;;;;;;;3.60;1.10;;;;;;;26.14;35.29;102815.81;4978286;28;20061;-62
2022/11/11 10:30:21;;;;;;;2.65;0.70;;;;;;;25.90;35.55;102816.81;4978914;28;20023;-62
2022/11/11 10:32:53;;;;;;;2.90;0.60;;;;;;;25.86;35.05;102821.81;4979020;28;20524;-62
2022/11/11 10:35:23;;;;;;;3.25;0.50;;;;;;;25.78;35.32;102821.84;4962446;28;20054;-62
2022/11/11 10:38:09;;;;;;;1.75;0.77;;;;;;;25.71;34.95;102815.34;4962539;28;20034;-62
2022/11/11 10:40:42;;;;;;;7.07;1.05;;;;;;;25.58;35.33;102820.59;4978547;28;20034;-60
2022/11/11 10:43:13;;;;;;;;;;;;;;;25.52;35.96;102818.53;4978592;28;20027;-60
2022/11/11 10:45:45;;;;;;;2.40;1.00;;;;;;;25.41;35.20;102821.66;4962329;28;19910;-60
2022/11/11 10:48:18;;;;;;;0.93;0.47;;;;;;;25.35;35.22;102819.63;4978984;28;20029;-60
2022/11/11 10:50:52;;;;;;;4.57;1.10;;;;;;;25.33;35.47;102824.44;4978533;28;20031;-60
2022/11/11 10:53:33;;;;;;;1.88;0.85;;;;;;;25.29;35.32;102817.59;4978229;28;20055;-60
2022/11/11 10:56:07;;;;;;;7.13;0.80;;;;;;;25.27;35.39;102830.63;4979396;28;20073;-60
2022/11/11 10:58:33;;;;;;;3.42;0.77;;;;;;;25.29;35.03;102825.84;4979389;28;20042;-60
2022/11/11 11:01:00;;;;;;;7.93;0.93;;;;;;;25.34;35.08;102829.75;4978344;28;20050;-60
2022/11/11 11:03:31;;;;;;;2.92;0.73;;;;;;;25.41;34.75;102822.50;4978602;28;20049;-60
2022/11/11 11:06:12;;;;;;;2.78;0.65;;;;;;;25.53;34.38;102828.50;4978046;28;20038;-60
2022/11/11 11:08:45;;;;;;;5.20;0.98;;;;;;;25.66;34.79;102828.78;4979107;28;20042;-60
2022/11/11 11:11:17;;;;;;;4.30;0.70;;;;;;;25.80;34.59;102828.00;4961769;28;20031;-60
2022/11/11 11:13:47;;;;;;;3.53;1.17;;;;;;;25.95;34.50;102830.84;4977903;28;20516;-62
2022/11/11 11:16:19;;;;;;;1.08;0.70;;;;;;;26.10;34.10;102829.03;4977552;28;20035;-60
2022/11/11 11:19:17;;;;;;;3.00;0.90;;;;;;;26.29;33.93;102830.47;4977883;28;20365;-60
2022/11/11 11:21:56;;;;;;;0.98;0.70;;;;;;;26.40;33.78;102821.78;4978696;28;20031;-60
2022/11/11 11:24:27;;;;;;;4.28;0.90;;;;;;;26.45;33.67;102824.84;4977779;28;20061;-62
2022/11/11 11:27:05;;;;;;;4.05;0.77;;;;;;;26.51;33.84;102815.84;4977249;28;20050;-60
2022/11/11 11:29:34;;;;;;;6.43;1.08;;;;;;;26.56;34.26;102807.91;4977174;28;20027;-61
2022/11/11 11:32:14;;;;;;;1.70;0.82;;;;;;;26.56;34.51;102810.66;4978563;28;20500;-61
2022/11/11 11:34:44;;;;;;;3.72;0.50;;;;;;;26.53;34.22;102805.53;4978775;28;22002;-61
2022/11/11 11:37:09;;;;;;;3.72;0.82;;;;;;;26.48;33.75;102807.97;4976496;28;20526;-62
2022/11/11 11:39:38;;;;;;;1.90;0.65;;;;;;;26.42;34.19;102808.72;4977307;28;20026;-60
2022/11/11 11:42:04;;;;;;;1.25;0.57;;;;;;;26.40;34.33;102810.81;4961454;28;20031;-60
2022/11/11 11:44:34;;;;;;;2.20;0.85;;;;;;;26.42;33.89;102809.56;4961156;28;20447;-62
2022/11/11 11:47:25;;;;;;;5.53;1.20;;;;;;;26.44;33.71;102814.88;4976887;28;20054;-61
2022/11/11 11:50:09;;;;;;;0.68;0.68;;;;;;;26.42;34.31;102806.81;4977043;28;20035;-62
2022/11/11 11:53:11;;;;;;;2.17;0.60;;;;;;;26.47;33.73;102806.25;4976997;28;20082;-62
2022/11/11 11:55:41;;;;;;;2.95;0.70;;;;;;;26.51;33.73;102791.13;4978002;28;20047;-62
2022/11/11 11:58:12;;;;;;;1.70;0.80;;;;;;;26.56;34.15;102797.75;4976521;28;20038;-60
2022/11/11 12:00:49;;;;;;;1.45;1.08;;;;;;;26.47;33.39;102803.50;4977639;28;20033;-61
2022/11/11 12:03:27;;;;;;;2.15;0.73;;;;;;;26.24;34.05;102805.44;4961153;28;20034;-61
2022/11/11 12:06:17;;;;;;;0.80;0.50;;;;;;;26.05;34.14;102804.84;4961648;28;20404;-62
2022/11/11 12:08:52;;;;;;;3.80;0.77;;;;;;;26.01;33.92;102799.91;4976900;28;20373;-61
2022/11/11 12:11:26;;;;;;;2.78;0.88;;;;;;;25.97;34.10;102804.03;4978182;28;20034;-61
2022/11/11 12:14:25;;;;;;;5.05;0.75;;;;;;;25.95;34.35;102796.00;4976518;28;20046;-61
2022/11/11 12:17:18;;;;;;;1.65;0.95;;;;;;;25.94;34.48;102797.03;4960622;28;20038;-61
2022/11/11 12:20:22;;;;;;;3.00;0.80;;;;;;;25.84;34.59;102793.69;4976403;28;20389;-62
2022/11/11 12:22:57;;;;;;;1.98;0.60;;;;;;;25.81;34.15;102804.16;4976892;28;20027;-61
2022/11/11 12:25:41;;;;;;;1.95;0.70;;;;;;;25.76;34.25;102792.88;4976367;28;20035;-62
2022/11/11 12:28:21;;;;;;;1.65;1.13;;;;;;;25.75;34.56;102793.88;4976187;28;20046;-61
2022/11/11 12:31:25;;;;;;;2.47;0.60;;;;;;;25.71;34.23;102785.16;4977406;28;20045;-62
2022/11/11 12:34:05;;;;;;;3.13;1.42;;;;;;;25.72;34.46;102783.28;4920972;29;20064;-62
2022/11/11 12:36:37;;;;;;;3.95;0.90;;;;;;;25.64;34.55;102780.56;4920907;29;20079;-62
2022/11/11 12:39:28;;;;;;;2.47;0.80;;;;;;;25.56;34.65;102783.38;4921426;29;20111;-62
2022/11/11 12:42:30;;;;;;;3.25;0.65;;;;;;;25.49;34.37;102777.72;4936858;29;20044;-61
2022/11/11 12:45:11;;;;;;;2.33;0.73;;;;;;;25.41;35.07;102769.50;4936886;29;20075;-61
2022/11/11 12:47:44;;;;;;;5.30;1.15;;;;;;;25.35;35.35;102764.72;4938397;29;20549;-61
2022/11/11 12:50:19;;;;;;;1.45;0.80;;;;;;;25.34;35.04;102763.03;4925126;29;20486;-61
2022/11/11 12:52:52;;;;;;;1.65;0.88;;;;;;;25.30;35.00;102753.44;4924918;29;20072;-62
2022/11/11 12:55:24;;;;;;;4.22;1.15;;;;;;;25.30;35.24;102756.19;4924551;29;20053;-61
2022/11/11 12:58:01;;;;;;;2.70;0.60;;;;;;;25.26;35.30;102749.38;4940707;29;20032;-61
2022/11/11 13:00:26;;;;;;;2.20;0.90;;;;;;;25.22;35.14;102751.59;4941429;28;20050;-62